Terminal Aerodrome Forecast
Issued by NWS

Home | Current Version | Previous Version | Text Only | Print | Product List | Glossary On
Versions: 1 2 3 4 5 6 7 8 9 10 11 12 13 14 15 16 17 18 19 20 21 22 23 24 25 26 27 28
000
FTUS46 KLOX 242300
TAFLAX
TAF
KLAX 242337Z 2500/2606 26012KT P6SM SCT250
     FM250400 26007KT P6SM FEW150 SCT250
     FM250800 VRB03KT P6SM FEW150 SCT250
     FM251700 26007KT P6SM SCT250
     FM252000 26012KT P6SM SCT250=

USA.gov is the U.S. government's official web portal to all federal, state and local government web resources and services.